createdAt,value
2019-01-06T00:00:22.949Z,93.70
2019-01-06T00:03:26.191Z,94.00
2019-01-06T00:06:22.057Z,93.90
2019-01-06T00:09:25.658Z,94.20
2019-01-06T00:12:07.119Z,94.30
2019-01-06T00:14:55.449Z,94.30
2019-01-06T00:17:59.888Z,94.30
2019-01-06T00:20:49.205Z,94.60
2019-01-06T00:23:41.492Z,94.60
2019-01-06T00:26:29.692Z,94.40
2019-01-06T00:29:17.935Z,94.30
2019-01-06T00:32:22.631Z,94.50
2019-01-06T00:35:21.327Z,94.40
2019-01-06T00:38:16.730Z,94.40
2019-01-06T00:41:09.848Z,94.50
2019-01-06T00:43:50.787Z,94.40
2019-01-06T00:46:39.270Z,94.70
2019-01-06T00:49:44.010Z,94.50
2019-01-06T00:52:48.437Z,94.70
2019-01-06T00:55:36.304Z,94.60
2019-01-06T00:58:31.717Z,94.60
2019-01-06T01:01:36.151Z,94.60
2019-01-06T01:04:28.509Z,94.50
2019-01-06T01:07:27.004Z,94.50
2019-01-06T01:10:14.527Z,94.60
2019-01-06T01:13:12.700Z,94.50
2019-01-06T01:16:00.701Z,94.60
2019-01-06T01:19:05.026Z,94.50
2019-01-06T01:21:54.353Z,94.70
2019-01-06T01:24:49.580Z,94.70
2019-01-06T01:27:44.663Z,94.90
2019-01-06T01:30:31.477Z,94.80
2019-01-06T01:33:36.071Z,95.00
2019-01-06T01:36:23.096Z,94.90
2019-01-06T01:39:19.242Z,95.10
2019-01-06T01:42:14.839Z,95.00
2019-01-06T01:45:06.964Z,94.80
2019-01-06T01:47:54.806Z,95.10
2019-01-06T01:50:43.013Z,95.00
2019-01-06T01:53:26.934Z,94.70
2019-01-06T01:56:16.097Z,95.00
2019-01-06T01:59:01.245Z,95.10
2019-01-06T02:01:50.625Z,95.10
2019-01-06T02:04:42.767Z,95.10
2019-01-06T02:07:21.230Z,94.70
2019-01-06T02:10:17.487Z,94.80
2019-01-06T02:13:18.855Z,94.80
2019-01-06T02:16:11.207Z,95.00
2019-01-06T02:19:15.041Z,94.90
2019-01-06T02:22:19.699Z,94.80
2019-01-06T02:25:21.125Z,94.80
2019-01-06T02:28:13.194Z,94.90
2019-01-06T02:31:01.487Z,95.00
2019-01-06T02:33:49.778Z,94.90
2019-01-06T02:36:39.253Z,94.80
2019-01-06T02:39:27.254Z,95.20
2019-01-06T02:42:15.501Z,94.80
2019-01-06T02:45:03.837Z,94.70
2019-01-06T02:47:57.244Z,95.20
2019-01-06T02:50:47.927Z,94.90
2019-01-06T02:53:43.359Z,94.80
2019-01-06T02:56:41.962Z,94.90
2019-01-06T02:59:34.378Z,95.00
2019-01-06T03:02:29.637Z,94.90
2019-01-06T03:05:31.923Z,94.90
2019-01-06T03:08:20.098Z,95.10
2019-01-06T03:11:08.218Z,95.10
2019-01-06T03:14:07.162Z,95.00
2019-01-06T03:16:59.422Z,94.90
2019-01-06T03:19:47.549Z,95.20
2019-01-06T03:22:43.070Z,95.00
2019-01-06T03:25:32.525Z,95.30
2019-01-06T03:28:20.438Z,95.50
2019-01-06T03:31:12.725Z,95.40
2019-01-06T03:33:59.607Z,95.30
2019-01-06T03:36:52.543Z,95.40
2019-01-06T03:39:59.979Z,95.20
2019-01-06T03:42:51.766Z,95.20
2019-01-06T03:45:34.962Z,95.50
2019-01-06T03:48:22.940Z,95.50
2019-01-06T03:51:27.348Z,95.30
2019-01-06T03:54:22.452Z,95.30
2019-01-06T03:57:17.556Z,95.50
2019-01-06T04:00:05.463Z,95.50
2019-01-06T04:02:46.567Z,95.80
2019-01-06T04:05:38.723Z,95.60
2019-01-06T04:08:27.051Z,95.60
2019-01-06T04:11:15.566Z,95.70
2019-01-06T04:14:23.147Z,95.70
2019-01-06T04:17:30.336Z,95.70
2019-01-06T04:20:18.105Z,95.80
2019-01-06T04:23:09.187Z,95.70
2019-01-06T04:25:57.474Z,95.70
2019-01-06T04:28:53.315Z,95.80
2019-01-06T04:31:41.323Z,95.50
2019-01-06T04:34:31.737Z,95.70
2019-01-06T04:37:24.069Z,95.70
2019-01-06T04:40:17.263Z,95.80
2019-01-06T04:43:12.502Z,95.80
2019-01-06T04:46:07.943Z,96.00
2019-01-06T04:48:56.242Z,96.00
2019-01-06T04:52:00.417Z,95.70
2019-01-06T04:54:52.612Z,95.90
2019-01-06T04:57:41.887Z,95.90
2019-01-06T05:00:40.252Z,95.80
2019-01-06T05:03:39.949Z,95.90
2019-01-06T05:06:28.147Z,96.00
2019-01-06T05:09:16.085Z,95.70
2019-01-06T05:11:54.931Z,95.70
2019-01-06T05:14:47.529Z,95.70
2019-01-06T05:17:52.212Z,95.80
2019-01-06T05:20:40.366Z,95.80
2019-01-06T05:23:29.420Z,95.90
2019-01-06T05:26:17.968Z,95.80
2019-01-06T05:29:25.687Z,95.80
2019-01-06T05:32:13.859Z,95.90
2019-01-06T05:35:01.060Z,95.90
2019-01-06T05:37:49.154Z,95.90
2019-01-06T05:40:56.657Z,95.90
2019-01-06T05:43:49.061Z,95.90
2019-01-06T05:46:37.204Z,95.70
2019-01-06T05:49:35.629Z,95.60
2019-01-06T05:52:33.870Z,95.70
2019-01-06T05:55:23.203Z,95.90
2019-01-06T05:58:11.022Z,95.90
2019-01-06T06:01:01.235Z,95.70
2019-01-06T06:03:56.067Z,95.90
2019-01-06T06:06:51.438Z,96.00
2019-01-06T06:09:50.942Z,96.10
2019-01-06T06:12:36.293Z,96.10
2019-01-06T06:15:24.467Z,96.00
2019-01-06T06:18:19.619Z,95.90
2019-01-06T06:21:07.609Z,95.70
2019-01-06T06:24:12.238Z,95.70
2019-01-06T06:27:19.934Z,95.60
2019-01-06T06:30:05.448Z,95.60
2019-01-06T06:32:53.319Z,95.60
2019-01-06T06:35:41.411Z,95.60
2019-01-06T06:38:42.906Z,95.60
2019-01-06T06:41:31.008Z,95.60
2019-01-06T06:44:26.350Z,95.60
2019-01-06T06:47:14.499Z,95.40
2019-01-06T06:50:13.977Z,95.50
2019-01-06T06:53:09.555Z,95.40
2019-01-06T06:55:57.678Z,95.40
2019-01-06T06:58:43.218Z,95.50
2019-01-06T07:01:35.135Z,95.50
2019-01-06T07:04:30.230Z,95.60
2019-01-06T07:07:18.252Z,95.40
2019-01-06T07:10:06.202Z,95.40
2019-01-06T07:12:57.367Z,95.50
2019-01-06T07:15:51.073Z,95.60
2019-01-06T07:18:48.619Z,95.60
2019-01-06T07:21:58.786Z,95.70
2019-01-06T07:24:46.830Z,95.60
2019-01-06T07:27:38.479Z,95.80
2019-01-06T07:30:36.146Z,95.80
2019-01-06T07:33:25.311Z,95.80
2019-01-06T07:36:07.735Z,95.70
2019-01-06T07:39:04.945Z,95.70
2019-01-06T07:41:54.240Z,95.90
2019-01-06T07:44:44.372Z,95.90
2019-01-06T07:47:32.352Z,95.90
2019-01-06T07:50:30.819Z,95.70
2019-01-06T07:53:30.117Z,95.70
2019-01-06T07:56:25.525Z,95.90
2019-01-06T07:59:13.466Z,95.80
2019-01-06T08:02:02.795Z,95.90
2019-01-06T08:04:50.781Z,95.80
2019-01-06T08:07:38.999Z,95.90
2019-01-06T08:10:33.907Z,95.90
2019-01-06T08:13:19.769Z,95.70
2019-01-06T08:16:24.312Z,95.90
2019-01-06T08:19:23.875Z,95.80
2019-01-06T08:22:11.815Z,95.70
2019-01-06T08:25:07.022Z,95.70
2019-01-06T08:27:59.242Z,95.80
2019-01-06T08:30:46.947Z,95.70
2019-01-06T08:33:45.233Z,95.70
2019-01-06T08:36:46.830Z,95.80
2019-01-06T08:39:36.108Z,95.80
2019-01-06T08:42:24.531Z,96.20
2019-01-06T08:45:12.795Z,96.00
2019-01-06T08:48:00.722Z,96.10
2019-01-06T08:50:49.099Z,96.20
2019-01-06T08:53:47.357Z,96.10
2019-01-06T08:56:35.770Z,96.20
2019-01-06T08:59:15.606Z,96.10
2019-01-06T09:02:10.741Z,96.20
2019-01-06T09:05:03.053Z,96.20
2019-01-06T09:07:51.079Z,96.20
2019-01-06T09:10:46.455Z,96.30
2019-01-06T09:13:41.603Z,96.40
2019-01-06T09:16:30.036Z,96.30
2019-01-06T09:19:28.589Z,96.50
2019-01-06T09:22:18.066Z,96.70
2019-01-06T09:25:06.454Z,96.30
2019-01-06T09:27:52.369Z,96.30
2019-01-06T09:30:40.656Z,96.20
2019-01-06T09:33:28.675Z,96.10
2019-01-06T09:36:17.073Z,96.30
2019-01-06T09:39:15.762Z,96.50
2019-01-06T09:42:09.082Z,96.40
2019-01-06T09:45:16.639Z,96.40
2019-01-06T09:48:06.444Z,96.40
2019-01-06T09:51:07.221Z,96.30
2019-01-06T09:54:07.566Z,96.10
2019-01-06T09:57:09.079Z,96.20
2019-01-06T09:59:57.227Z,96.30
2019-01-06T10:02:45.232Z,96.30
2019-01-06T10:05:37.621Z,96.20
2019-01-06T10:08:26.910Z,96.10
2019-01-06T10:11:22.093Z,96.10
2019-01-06T10:14:11.066Z,96.10
2019-01-06T10:16:59.374Z,95.90
2019-01-06T10:20:01.073Z,96.10
2019-01-06T10:22:50.410Z,96.20
2019-01-06T10:25:48.758Z,96.40
2019-01-06T10:28:36.167Z,96.30
2019-01-06T10:31:28.497Z,96.20
2019-01-06T10:34:23.751Z,96.20
2019-01-06T10:37:11.687Z,96.10
2019-01-06T10:39:57.357Z,96.20
2019-01-06T10:42:46.740Z,96.40
2019-01-06T10:45:48.195Z,96.20
2019-01-06T10:48:36.217Z,96.00
2019-01-06T10:51:43.775Z,96.00
2019-01-06T10:54:33.722Z,96.20
2019-01-06T10:57:21.719Z,96.00
2019-01-06T11:00:17.229Z,95.90
2019-01-06T11:03:25.255Z,96.00
2019-01-06T11:06:20.377Z,95.70
2019-01-06T11:09:09.808Z,96.40
2019-01-06T11:11:57.985Z,96.10
2019-01-06T11:14:42.905Z,95.80
2019-01-06T11:17:32.212Z,95.80
2019-01-06T11:20:20.493Z,95.90
2019-01-06T11:23:09.933Z,95.40
2019-01-06T11:26:05.446Z,95.40
2019-01-06T11:29:03.098Z,95.40
2019-01-06T11:31:47.126Z,95.40
2019-01-06T11:34:36.468Z,95.30
2019-01-06T11:37:44.155Z,95.30
2019-01-06T11:40:36.456Z,95.40
2019-01-06T11:43:25.738Z,95.60
2019-01-06T11:46:24.354Z,95.40
2019-01-06T11:49:12.907Z,95.30
2019-01-06T11:52:02.325Z,95.10
2019-01-06T11:54:50.688Z,95.50
2019-01-06T11:57:49.266Z,95.30
2019-01-06T12:00:37.341Z,95.20
2019-01-06T12:03:44.940Z,95.30
2019-01-06T12:06:37.337Z,95.40
2019-01-06T12:09:29.694Z,95.50
2019-01-06T12:12:37.563Z,95.50
2019-01-06T12:15:25.033Z,95.60
2019-01-06T12:18:13.412Z,95.70
2019-01-06T12:21:01.429Z,95.60
2019-01-06T12:23:41.027Z,95.70
2019-01-06T12:26:39.839Z,95.50
2019-01-06T12:29:39.032Z,95.70
2019-01-06T12:32:28.426Z,95.80
2019-01-06T12:35:16.458Z,95.80
2019-01-06T12:38:08.988Z,95.60
2019-01-06T12:40:58.393Z,95.70
2019-01-06T12:44:06.243Z,95.90
2019-01-06T12:46:50.331Z,95.80
2019-01-06T12:49:38.435Z,95.80
2019-01-06T12:52:36.778Z,95.90
2019-01-06T12:55:22.525Z,95.80
2019-01-06T12:58:13.026Z,96.00
2019-01-06T13:01:02.493Z,96.30
2019-01-06T13:04:01.111Z,95.70
2019-01-06T13:07:01.029Z,95.60
2019-01-06T13:09:53.620Z,95.60
2019-01-06T13:12:55.068Z,95.70
2019-01-06T13:15:43.039Z,95.70
2019-01-06T13:18:42.379Z,95.80
2019-01-06T13:21:49.889Z,96.00
2019-01-06T13:24:42.037Z,95.80
2019-01-06T13:27:49.536Z,95.80
2019-01-06T13:30:32.318Z,95.90
2019-01-06T13:33:21.693Z,95.80
2019-01-06T13:36:14.243Z,95.60
2019-01-06T13:39:09.691Z,95.70
2019-01-06T13:42:14.480Z,95.80
2019-01-06T13:44:56.832Z,95.60
2019-01-06T13:47:48.945Z,95.50
2019-01-06T13:50:53.747Z,95.70
2019-01-06T13:53:58.178Z,95.70
2019-01-06T13:56:46.361Z,95.80
2019-01-06T13:59:34.488Z,95.80
2019-01-06T14:02:17.986Z,95.80
2019-01-06T14:05:16.478Z,95.80
2019-01-06T14:08:21.591Z,95.70
2019-01-06T14:11:09.670Z,95.70
2019-01-06T14:13:57.985Z,95.50
2019-01-06T14:16:46.428Z,95.60
2019-01-06T14:19:34.332Z,95.70
2019-01-06T14:22:38.911Z,95.60
2019-01-06T14:25:34.022Z,95.60
2019-01-06T14:28:20.551Z,95.70
2019-01-06T14:31:12.933Z,95.80
2019-01-06T14:33:58.870Z,96.20
2019-01-06T14:36:46.993Z,95.80
2019-01-06T14:39:35.131Z,95.70
2019-01-06T14:42:33.717Z,95.90
2019-01-06T14:45:38.519Z,96.00
2019-01-06T14:48:30.388Z,96.20
2019-01-06T14:51:34.872Z,96.10
2019-01-06T14:54:24.370Z,96.20
2019-01-06T14:57:14.859Z,96.10
2019-01-06T15:00:04.197Z,96.00
2019-01-06T15:02:52.619Z,96.10
2019-01-06T15:05:45.398Z,96.00
2019-01-06T15:08:33.786Z,96.00
2019-01-06T15:11:26.271Z,96.20
2019-01-06T15:14:24.722Z,96.40
2019-01-06T15:17:12.918Z,95.90
2019-01-06T15:20:00.920Z,96.00
2019-01-06T15:23:05.752Z,96.00
2019-01-06T15:25:57.811Z,96.10
2019-01-06T15:28:45.821Z,96.20
2019-01-06T15:31:25.113Z,96.10
2019-01-06T15:34:30.614Z,96.00
2019-01-06T15:37:20.055Z,96.10
2019-01-06T15:40:09.478Z,96.00
2019-01-06T15:42:58.635Z,95.90
2019-01-06T15:46:00.018Z,95.80
2019-01-06T15:48:58.235Z,95.80
2019-01-06T15:51:54.385Z,95.70
2019-01-06T15:54:40.355Z,95.80
2019-01-06T15:57:35.007Z,95.70
2019-01-06T16:00:37.491Z,95.80
2019-01-06T16:03:24.214Z,95.70
2019-01-06T16:06:13.512Z,95.80
2019-01-06T16:09:01.587Z,95.80
2019-01-06T16:11:51.356Z,95.80
2019-01-06T16:14:39.512Z,95.70
2019-01-06T16:17:27.773Z,95.80
2019-01-06T16:20:24.996Z,95.90
2019-01-06T16:23:17.127Z,96.00
2019-01-06T16:26:06.436Z,95.90
2019-01-06T16:28:55.817Z,95.70
2019-01-06T16:31:45.105Z,95.70
2019-01-06T16:34:26.030Z,95.50
2019-01-06T16:37:14.276Z,95.60
2019-01-06T16:40:02.584Z,95.60
2019-01-06T16:42:56.110Z,95.60
2019-01-06T16:45:39.938Z,95.50
2019-01-06T16:48:27.974Z,95.40
2019-01-06T16:51:18.866Z,95.50
2019-01-06T16:54:02.413Z,95.60
2019-01-06T16:56:52.787Z,95.60
2019-01-06T16:59:57.859Z,95.60
2019-01-06T17:02:43.722Z,95.50
2019-01-06T17:05:33.234Z,95.60
2019-01-06T17:08:28.591Z,95.60
2019-01-06T17:11:21.003Z,95.70
2019-01-06T17:14:16.212Z,95.40
2019-01-06T17:17:17.934Z,95.80
2019-01-06T17:20:01.397Z,95.60
2019-01-06T17:22:49.628Z,95.60
2019-01-06T17:25:47.936Z,95.80
2019-01-06T17:28:30.578Z,95.50
2019-01-06T17:31:18.952Z,95.70
2019-01-06T17:34:23.607Z,95.70
2019-01-06T17:37:11.769Z,95.70
2019-01-06T17:40:07.002Z,95.90
2019-01-06T17:43:01.419Z,96.00
2019-01-06T17:46:02.926Z,96.00
2019-01-06T17:48:55.464Z,95.80
2019-01-06T17:52:01.935Z,95.70
2019-01-06T17:54:50.239Z,95.70
2019-01-06T17:57:57.782Z,95.60
2019-01-06T18:00:45.653Z,95.60
2019-01-06T18:03:32.280Z,95.50
2019-01-06T18:06:32.437Z,95.50
2019-01-06T18:09:20.644Z,95.40
2019-01-06T18:12:07.285Z,95.30
2019-01-06T18:14:55.211Z,95.20
2019-01-06T18:17:43.701Z,95.20
2019-01-06T18:20:32.002Z,95.30
2019-01-06T18:23:20.129Z,95.30
2019-01-06T18:26:08.123Z,95.40
2019-01-06T18:29:15.636Z,95.40
2019-01-06T18:32:04.988Z,95.40
2019-01-06T18:35:03.093Z,95.30
2019-01-06T18:37:51.059Z,95.30
2019-01-06T18:40:43.118Z,95.20
2019-01-06T18:43:31.235Z,95.20
2019-01-06T18:46:19.359Z,95.20
2019-01-06T18:49:11.958Z,95.20
2019-01-06T18:52:16.516Z,95.20
2019-01-06T18:55:14.764Z,95.20
2019-01-06T18:58:03.031Z,95.20
2019-01-06T19:01:00.822Z,95.00
2019-01-06T19:03:52.485Z,95.10
2019-01-06T19:06:40.647Z,95.10
2019-01-06T19:09:28.637Z,95.10
2019-01-06T19:12:16.823Z,95.10
2019-01-06T19:15:09.276Z,95.10
2019-01-06T19:17:57.423Z,95.20
2019-01-06T19:20:58.941Z,95.30
2019-01-06T19:23:39.452Z,95.30
2019-01-06T19:26:27.636Z,95.30
2019-01-06T19:29:16.071Z,95.20
2019-01-06T19:32:05.404Z,95.20
2019-01-06T19:34:54.782Z,95.20
2019-01-06T19:37:44.232Z,95.20
2019-01-06T19:40:47.846Z,95.10
2019-01-06T19:43:48.311Z,95.00
2019-01-06T19:46:43.617Z,95.10
2019-01-06T19:49:33.566Z,94.90
2019-01-06T19:52:31.882Z,95.00
2019-01-06T19:55:24.010Z,94.90
2019-01-06T19:58:13.396Z,95.00
2019-01-06T20:01:17.879Z,95.10
2019-01-06T20:04:06.343Z,95.10
2019-01-06T20:07:10.958Z,95.30
2019-01-06T20:10:18.706Z,95.30
2019-01-06T20:13:06.710Z,95.40
2019-01-06T20:16:07.951Z,95.40
2019-01-06T20:19:00.443Z,95.40
2019-01-06T20:22:03.966Z,95.40
2019-01-06T20:25:02.423Z,95.40
2019-01-06T20:27:49.519Z,95.40
2019-01-06T20:30:40.343Z,95.40
2019-01-06T20:33:32.731Z,95.60
2019-01-06T20:36:28.308Z,95.60
2019-01-06T20:39:17.261Z,95.60
2019-01-06T20:42:03.769Z,95.50
2019-01-06T20:44:51.801Z,95.50
2019-01-06T20:47:55.383Z,95.50
2019-01-06T20:50:45.566Z,95.50
2019-01-06T20:53:37.116Z,95.60
2019-01-06T20:56:32.415Z,95.50
2019-01-06T20:59:20.662Z,95.50
2019-01-06T21:02:08.990Z,95.60
2019-01-06T21:05:01.426Z,95.50
2019-01-06T21:07:53.737Z,95.50
2019-01-06T21:10:42.034Z,95.40
2019-01-06T21:13:30.194Z,95.50
2019-01-06T21:16:37.990Z,95.50
2019-01-06T21:19:26.297Z,95.60
2019-01-06T21:22:24.752Z,95.70
2019-01-06T21:25:13.714Z,95.60
2019-01-06T21:28:18.319Z,95.60
2019-01-06T21:31:26.254Z,95.60
2019-01-06T21:34:14.525Z,95.50
2019-01-06T21:37:07.455Z,95.50
2019-01-06T21:39:57.776Z,95.80
2019-01-06T21:42:47.077Z,95.50
2019-01-06T21:45:45.579Z,95.40
2019-01-06T21:48:33.729Z,95.40
2019-01-06T21:51:23.094Z,95.40
2019-01-06T21:54:30.519Z,95.40
2019-01-06T21:57:18.650Z,95.40
2019-01-06T22:00:08.445Z,95.40
2019-01-06T22:02:53.942Z,95.50
2019-01-06T22:05:43.318Z,95.50
2019-01-06T22:08:35.489Z,95.50
2019-01-06T22:11:23.496Z,95.50
2019-01-06T22:14:27.834Z,95.40
2019-01-06T22:17:19.982Z,95.30
2019-01-06T22:20:08.648Z,95.40
2019-01-06T22:23:07.089Z,95.30
2019-01-06T22:26:02.564Z,95.30
2019-01-06T22:28:57.801Z,95.20
2019-01-06T22:31:59.270Z,95.10
2019-01-06T22:34:57.920Z,95.00
2019-01-06T22:37:56.557Z,94.90
2019-01-06T22:40:45.954Z,94.90
2019-01-06T22:43:39.845Z,94.90
2019-01-06T22:46:29.319Z,95.00
2019-01-06T22:49:24.436Z,95.10
2019-01-06T22:52:09.703Z,95.10
2019-01-06T22:54:58.395Z,95.20
2019-01-06T22:57:46.529Z,95.30
2019-01-06T23:00:43.616Z,95.30
2019-01-06T23:03:31.476Z,95.40
2019-01-06T23:06:19.694Z,95.40
2019-01-06T23:09:18.059Z,95.40
2019-01-06T23:12:07.465Z,95.30
2019-01-06T23:15:03.128Z,95.30
2019-01-06T23:17:51.519Z,95.30
2019-01-06T23:20:46.695Z,95.30
2019-01-06T23:23:38.464Z,95.40
2019-01-06T23:26:42.926Z,95.40
2019-01-06T23:29:48.559Z,95.40
2019-01-06T23:32:38.033Z,95.40
2019-01-06T23:35:33.255Z,95.40
2019-01-06T23:38:29.548Z,95.40
2019-01-06T23:41:17.964Z,95.40
2019-01-06T23:44:01.037Z,95.50
2019-01-06T23:46:51.358Z,95.40
2019-01-06T23:49:40.654Z,95.40
2019-01-06T23:52:29.886Z,95.30
2019-01-06T23:58:29.308Z,95.30
